ZMUB/ULN METAR and TAF weather

Enter ICAO airport designator
Station Type Date Time Source
ZMUB METAR 2021/03/05 07:00 UTC NOAA

ZMUB 050700Z 21004MPS CAVOK M06/M19 Q1026 NOSIG RMK QFE661.2 33


Station Type Date Time Source
ZMUB Decoded METAR 2021/03/05 07:00 UTC NOAA

Ulan-Bator, Mongolia (ZMUB) 47-51N 106-46E
Mar 05, 2021 - 02:00 AM EST / 2021.03.05 0700 UTC
Wind: from the SSW (210 degrees) at 9 MPH (8 KT):0
Visibility: greater than 7 mile(s):0
Temperature: 21 F (-6 C)
Windchill: 10 F (-12 C):1
Dew Point: -2 F (-19 C)
Relative Humidity: 34%
Pressure (altimeter): 30.30 in. Hg (1026 hPa)
ob: ZMUB 050700Z 21004MPS CAVOK M06/M19 Q1026 NOSIG RMK QFE661.2 33
cycle: 7

Station Type Date Time Source
ZMUB TAF 2021/03/05 06:51 UTC NOAA

TAF TAF ZMUB 050445Z 0506/0612 VRB02MPS 9999 SCT100
BECMG 0511/0513 15006MPS
BECMG 0521/0523 VRB02MPS TXM06/0507Z TNM19/0523Z

Example: see airport list